createdAt,value
2023-01-23T00:02:07.278Z,99598.09
2023-01-23T00:04:33.820Z,99597.09
2023-01-23T00:07:00.363Z,99599.06
2023-01-23T00:09:26.824Z,99590.13
2023-01-23T00:11:53.257Z,99588.53
2023-01-23T00:14:19.737Z,99579.88
2023-01-23T00:16:46.256Z,99585.84
2023-01-23T00:19:12.842Z,99577.59
2023-01-23T00:21:39.563Z,99580.53
2023-01-23T00:24:06.619Z,99574.75
2023-01-23T00:26:33.306Z,99577.22
2023-01-23T00:29:00.113Z,99577.22
2023-01-23T00:31:29.383Z,99568.94
2023-01-23T00:34:02.085Z,99564.31
2023-01-23T00:36:31.625Z,99567.44
2023-01-23T00:38:58.524Z,99573.75
2023-01-23T00:41:25.977Z,99563.81
2023-01-23T00:43:52.730Z,99565.28
2023-01-23T00:46:20.953Z,99566.94
2023-01-23T00:48:47.940Z,99572.28
2023-01-23T00:51:14.533Z,99573.91
2023-01-23T00:53:41.101Z,99565.66
2023-01-23T00:56:08.319Z,99569.94
2023-01-23T00:58:34.880Z,99565.16
2023-01-23T01:01:01.360Z,99564.28
2023-01-23T01:03:27.931Z,99569.75
2023-01-23T01:05:54.432Z,99565.78
2023-01-23T01:08:20.942Z,99568.94
2023-01-23T01:10:47.513Z,99579.63
2023-01-23T01:13:14.538Z,99582.84
2023-01-23T01:15:41.249Z,99580.88
2023-01-23T01:18:07.726Z,99585.16
2023-01-23T01:20:34.325Z,99578.84
2023-01-23T01:23:00.848Z,99583.84
2023-01-23T01:25:27.803Z,99587.47
2023-01-23T01:27:55.975Z,99586.50
2023-01-23T01:30:23.034Z,99583.47
2023-01-23T01:32:50.320Z,99580.16
2023-01-23T01:35:16.955Z,99580.88
2023-01-23T01:37:43.583Z,99581.19
2023-01-23T01:40:15.394Z,99584.84
2023-01-23T01:42:52.847Z,99578.53
2023-01-23T01:45:56.736Z,99592.09
2023-01-23T01:48:27.357Z,99593.25
2023-01-23T01:50:54.479Z,99590.13
2023-01-23T01:53:25.749Z,99591.47
2023-01-23T01:55:53.328Z,99589.19
2023-01-23T01:58:20.156Z,99589.13
2023-01-23T02:00:46.734Z,99589.28
2023-01-23T02:03:13.240Z,99588.97
2023-01-23T02:05:45.273Z,99586.22
2023-01-23T02:08:30.051Z,99587.75
2023-01-23T02:10:56.776Z,99581.28
2023-01-23T02:13:35.982Z,99589.41
2023-01-23T02:16:14.516Z,99596.00
2023-01-23T02:18:47.273Z,99597.47
2023-01-23T02:21:16.924Z,99597.81
2023-01-23T02:23:56.300Z,99604.13
2023-01-23T02:26:32.728Z,99593.97
2023-01-23T02:29:00.058Z,99592.97
2023-01-23T02:31:27.136Z,99589.81
2023-01-23T02:33:56.576Z,99584.19
2023-01-23T02:36:29.022Z,99580.41
2023-01-23T02:39:08.596Z,99571.97
2023-01-23T02:41:41.808Z,99572.75
2023-01-23T02:44:19.795Z,99567.25
2023-01-23T02:46:46.346Z,99572.22
2023-01-23T02:49:13.063Z,99567.13
2023-01-23T02:51:39.568Z,99563.34
2023-01-23T02:54:06.323Z,99567.88
2023-01-23T02:56:33.997Z,99566.69
2023-01-23T02:59:20.992Z,99567.00
2023-01-23T03:01:47.720Z,99566.22
2023-01-23T03:04:14.240Z,99565.06
2023-01-23T03:06:40.757Z,99566.06
2023-01-23T03:09:10.851Z,99567.34
2023-01-23T03:11:39.309Z,99567.97
2023-01-23T03:14:09.087Z,99563.69
2023-01-23T03:16:38.323Z,99561.69
2023-01-23T03:19:08.259Z,99570.31
2023-01-23T03:21:40.589Z,99575.09
2023-01-23T03:24:09.607Z,99576.25
2023-01-23T03:26:39.981Z,99570.94
2023-01-23T03:29:25.028Z,99573.47
2023-01-23T03:31:51.822Z,99579.59
2023-01-23T03:34:19.119Z,99577.28
2023-01-23T03:36:45.729Z,99573.31
2023-01-23T03:39:31.047Z,99575.47
2023-01-23T03:41:57.576Z,99568.00
2023-01-23T03:44:24.150Z,99574.63
2023-01-23T03:46:51.886Z,99574.28
2023-01-23T03:49:19.391Z,99574.78
2023-01-23T03:51:45.977Z,99575.28
2023-01-23T03:54:14.634Z,99568.47
2023-01-23T03:56:42.389Z,99570.09
2023-01-23T03:59:09.322Z,99574.56
2023-01-23T04:01:36.896Z,99566.47
2023-01-23T04:04:04.253Z,99577.56
2023-01-23T04:06:30.944Z,99575.59
2023-01-23T04:08:58.275Z,99577.28
2023-01-23T04:11:26.462Z,99577.94
2023-01-23T04:13:54.162Z,99580.59
2023-01-23T04:16:22.825Z,99596.81
2023-01-23T04:18:52.596Z,99585.38
2023-01-23T04:21:19.144Z,99582.91
2023-01-23T04:23:45.972Z,99590.50
2023-01-23T04:26:13.275Z,99593.13
2023-01-23T04:28:39.785Z,99591.66
2023-01-23T04:31:06.820Z,99589.69
2023-01-23T04:33:33.461Z,99591.28
2023-01-23T04:36:01.723Z,99575.25
2023-01-23T04:38:29.537Z,99583.56
2023-01-23T04:40:56.494Z,99582.19
2023-01-23T04:43:23.043Z,99574.97
2023-01-23T04:45:53.887Z,99582.88
2023-01-23T04:48:20.630Z,99580.09
2023-01-23T04:50:47.586Z,99575.00
2023-01-23T04:53:14.576Z,99572.84
2023-01-23T04:55:41.346Z,99577.47
2023-01-23T04:58:08.213Z,99579.81
2023-01-23T05:00:34.723Z,99581.31
2023-01-23T05:03:02.660Z,99580.16
2023-01-23T05:05:29.406Z,99581.81
2023-01-23T05:07:55.852Z,99578.41
2023-01-23T05:10:22.876Z,99573.75
2023-01-23T05:12:49.569Z,99571.81
2023-01-23T05:15:17.285Z,99576.06
2023-01-23T05:17:44.002Z,99585.72
2023-01-23T05:20:11.293Z,99580.38
2023-01-23T05:22:38.066Z,99564.31
2023-01-23T05:25:05.085Z,99575.59
2023-01-23T05:27:31.668Z,99575.06
2023-01-23T05:29:58.192Z,99564.50
2023-01-23T05:32:24.740Z,99560.03
2023-01-23T05:34:51.275Z,99575.28
2023-01-23T05:37:17.899Z,99570.63
2023-01-23T05:39:44.380Z,99577.16
2023-01-23T05:42:10.875Z,99578.47
2023-01-23T05:44:37.379Z,99579.66
2023-01-23T05:47:03.927Z,99582.78
2023-01-23T05:49:30.430Z,99581.28
2023-01-23T05:51:56.872Z,99587.28
2023-01-23T05:54:23.316Z,99589.22
2023-01-23T05:56:49.880Z,99590.81
2023-01-23T05:59:16.379Z,99583.41
2023-01-23T06:01:42.844Z,99592.69
2023-01-23T06:04:09.449Z,99594.47
2023-01-23T06:06:36.031Z,99598.13
2023-01-23T06:09:02.535Z,99592.88
2023-01-23T06:11:28.982Z,99604.63
2023-01-23T06:13:55.529Z,99603.56
2023-01-23T06:16:22.069Z,99608.91
2023-01-23T06:18:48.595Z,99612.22
2023-01-23T06:21:17.812Z,99610.38
2023-01-23T06:23:47.067Z,99617.66
2023-01-23T06:26:13.993Z,99625.66
2023-01-23T06:28:40.751Z,99622.13
2023-01-23T06:31:09.393Z,99618.78
2023-01-23T06:33:38.910Z,99613.13
2023-01-23T06:36:07.177Z,99627.81
2023-01-23T06:38:33.895Z,99637.28
2023-01-23T06:41:01.085Z,99636.97
2023-01-23T06:43:27.919Z,99641.13
2023-01-23T06:45:54.425Z,99639.13
2023-01-23T06:48:21.950Z,99639.06
2023-01-23T06:50:48.889Z,99638.81
2023-01-23T06:53:16.741Z,99639.38
2023-01-23T06:55:43.354Z,99636.41
2023-01-23T06:58:10.018Z,99634.72
2023-01-23T07:00:36.501Z,99637.22
2023-01-23T07:03:03.736Z,99635.88
2023-01-23T07:05:31.128Z,99645.91
2023-01-23T07:07:57.659Z,99645.28
2023-01-23T07:10:24.383Z,99650.63
2023-01-23T07:12:50.880Z,99652.94
2023-01-23T07:15:17.681Z,99655.41
2023-01-23T07:17:44.651Z,99653.13
2023-01-23T07:20:11.540Z,99645.00
2023-01-23T07:22:38.034Z,99645.44
2023-01-23T07:25:05.311Z,99645.75
2023-01-23T07:27:33.087Z,99655.44
2023-01-23T07:29:59.599Z,99660.94
2023-01-23T07:32:26.180Z,99672.91
2023-01-23T07:34:53.241Z,99673.19
2023-01-23T07:37:20.645Z,99667.25
2023-01-23T07:39:47.130Z,99657.78
2023-01-23T07:42:13.589Z,99659.88
2023-01-23T07:44:40.080Z,99665.06
2023-01-23T07:47:06.579Z,99651.97
2023-01-23T07:49:33.124Z,99659.63
2023-01-23T07:51:59.640Z,99659.50
2023-01-23T07:54:26.080Z,99657.84
2023-01-23T07:56:52.612Z,99667.31
2023-01-23T07:59:19.147Z,99665.78
2023-01-23T08:01:45.695Z,99675.72
2023-01-23T08:04:12.295Z,99668.56
2023-01-23T08:06:38.943Z,99668.41
2023-01-23T08:09:05.492Z,99673.91
2023-01-23T08:11:34.293Z,99669.03
2023-01-23T08:14:01.001Z,99670.72
2023-01-23T08:16:28.284Z,99671.03
2023-01-23T08:18:54.960Z,99672.00
2023-01-23T08:21:22.034Z,99678.03
2023-01-23T08:23:48.750Z,99674.44
2023-01-23T08:26:17.339Z,99680.06
2023-01-23T08:28:45.148Z,99672.16
2023-01-23T08:31:13.220Z,99673.75
2023-01-23T08:33:40.152Z,99662.19
2023-01-23T08:36:09.518Z,99674.44
2023-01-23T08:38:37.941Z,99663.47
2023-01-23T08:41:05.109Z,99660.44
2023-01-23T08:43:33.147Z,99653.84
2023-01-23T08:46:00.059Z,99656.53
2023-01-23T08:48:27.582Z,99651.91
2023-01-23T08:51:01.650Z,99652.63
2023-01-23T08:53:29.544Z,99654.22
2023-01-23T08:56:05.066Z,99656.53
2023-01-23T08:58:31.782Z,99660.53
2023-01-23T09:00:58.679Z,99660.84
2023-01-23T09:03:25.720Z,99657.53
2023-01-23T09:05:52.239Z,99654.31
2023-01-23T09:08:18.798Z,99656.16
2023-01-23T09:10:45.291Z,99650.09
2023-01-23T09:13:11.865Z,99659.59
2023-01-23T09:15:39.501Z,99660.44
2023-01-23T09:18:06.555Z,99656.47
2023-01-23T09:20:33.348Z,99660.09
2023-01-23T09:22:59.978Z,99649.59
2023-01-23T09:25:26.494Z,99650.09
2023-01-23T09:27:53.064Z,99637.25
2023-01-23T09:30:19.898Z,99635.13
2023-01-23T09:32:46.625Z,99623.13
2023-01-23T09:35:13.096Z,99629.28
2023-01-23T09:37:59.061Z,99625.75
2023-01-23T09:40:27.735Z,99632.09
2023-01-23T09:42:57.050Z,99630.41
2023-01-23T09:45:27.604Z,99640.56
2023-01-23T09:48:20.128Z,99643.00
2023-01-23T09:50:56.453Z,99645.94
2023-01-23T09:53:26.970Z,99633.69
2023-01-23T09:56:07.093Z,99642.69
2023-01-23T09:58:46.249Z,99625.78
2023-01-23T10:01:13.814Z,99625.44
2023-01-23T10:03:41.274Z,99634.25
2023-01-23T10:06:24.412Z,99629.47
2023-01-23T10:09:04.789Z,99615.22
2023-01-23T10:11:42.752Z,99619.16
2023-01-23T10:14:30.886Z,99624.16
2023-01-23T10:17:08.469Z,99610.53
2023-01-23T10:19:51.851Z,99612.72
2023-01-23T10:22:49.044Z,99614.22
2023-01-23T10:25:21.657Z,99601.63
2023-01-23T10:27:50.809Z,99600.78
2023-01-23T10:30:28.120Z,99602.59
2023-01-23T10:33:09.918Z,99591.50
2023-01-23T10:35:47.533Z,99602.28
2023-01-23T10:38:27.744Z,99603.59
2023-01-23T10:41:12.945Z,99597.31
2023-01-23T10:43:40.739Z,99601.28
2023-01-23T10:46:16.706Z,99608.75
2023-01-23T10:48:49.921Z,99591.00
2023-01-23T10:51:46.771Z,99600.09
2023-01-23T10:54:30.636Z,99596.25
2023-01-23T10:56:59.584Z,99590.59
2023-01-23T10:59:28.946Z,99595.22
2023-01-23T11:02:20.162Z,99583.97
2023-01-23T11:04:49.320Z,99593.78
2023-01-23T11:07:22.555Z,99582.69
2023-01-23T11:09:50.805Z,99583.66
2023-01-23T11:12:21.624Z,99589.97
2023-01-23T11:14:48.939Z,99578.03
2023-01-23T11:17:19.480Z,99589.63
2023-01-23T11:19:48.567Z,99588.47
2023-01-23T11:22:31.128Z,99585.19
2023-01-23T11:24:58.558Z,99573.44
2023-01-23T11:27:29.684Z,99577.41
2023-01-23T11:30:31.508Z,99575.38
2023-01-23T11:33:05.657Z,99567.75
2023-01-23T11:35:57.449Z,99553.31
2023-01-23T11:38:31.846Z,99560.63
2023-01-23T11:40:59.137Z,99561.94
2023-01-23T11:43:25.705Z,99560.31
2023-01-23T11:46:15.419Z,99557.31
2023-01-23T11:49:14.257Z,99552.19
2023-01-23T11:51:56.019Z,99547.22
2023-01-23T11:54:58.802Z,99548.19
2023-01-23T11:57:34.202Z,99548.03
2023-01-23T12:00:33.141Z,99540.25
2023-01-23T12:03:18.184Z,99545.38
2023-01-23T12:06:19.246Z,99534.09
2023-01-23T12:08:56.679Z,99530.97
2023-01-23T12:11:24.603Z,99534.09
2023-01-23T12:14:21.189Z,99532.75
2023-01-23T12:16:59.563Z,99532.47
2023-01-23T12:19:37.876Z,99527.97
2023-01-23T12:22:19.647Z,99523.31
2023-01-23T12:25:13.836Z,99509.22
2023-01-23T12:27:57.815Z,99498.31
2023-01-23T12:30:38.993Z,99503.94
2023-01-23T12:33:17.903Z,99485.16
2023-01-23T12:35:47.582Z,99491.78
2023-01-23T12:38:36.935Z,99475.22
2023-01-23T12:41:20.787Z,99480.31
2023-01-23T12:43:50.457Z,99475.16
2023-01-23T12:46:26.881Z,99477.47
2023-01-23T12:49:14.549Z,99465.88
2023-01-23T12:51:45.919Z,99467.19
2023-01-23T12:54:21.162Z,99465.22
2023-01-23T12:59:24.992Z,99459.56
2023-01-23T13:01:58.244Z,99465.03
2023-01-23T13:04:39.897Z,99469.50
2023-01-23T13:07:09.404Z,99459.56
2023-01-23T13:10:03.660Z,99449.28
2023-01-23T13:12:30.513Z,99455.69
2023-01-23T13:15:38.728Z,99459.47
2023-01-23T13:18:06.246Z,99459.81
2023-01-23T13:20:57.981Z,99463.25
2023-01-23T13:23:29.186Z,99461.94
2023-01-23T13:26:12.582Z,99456.13
2023-01-23T13:28:53.880Z,99464.78
2023-01-23T13:32:15.642Z,99467.78
2023-01-23T13:34:42.207Z,99460.47
2023-01-23T13:37:50.977Z,99461.44
2023-01-23T13:40:20.980Z,99454.47
2023-01-23T13:42:47.603Z,99465.22
2023-01-23T13:45:21.061Z,99466.75
2023-01-23T14:22:46.732Z,99435.81
2023-01-23T14:25:17.618Z,99434.16
2023-01-23T14:27:53.304Z,99433.81
2023-01-23T14:30:30.246Z,99444.09
2023-01-23T14:32:56.854Z,99439.72
2023-01-23T14:35:29.099Z,99443.41
2023-01-23T14:38:02.403Z,99434.81
2023-01-23T14:40:37.333Z,99427.91
2023-01-23T14:43:09.125Z,99438.19
2023-01-23T14:45:37.347Z,99432.72
2023-01-23T14:48:07.559Z,99429.19
2023-01-23T14:50:34.551Z,99439.16
2023-01-23T14:53:06.454Z,99433.84
2023-01-23T14:55:37.415Z,99443.84
2023-01-23T14:58:04.888Z,99443.00
2023-01-23T15:00:32.021Z,99454.47
2023-01-23T15:02:58.680Z,99454.31
2023-01-23T15:05:27.907Z,99444.69
2023-01-23T15:08:07.409Z,99445.00
2023-01-23T15:10:42.753Z,99442.13
2023-01-23T15:13:21.437Z,99452.16
2023-01-23T15:15:55.619Z,99446.50
2023-01-23T15:18:27.971Z,99447.94
2023-01-23T15:20:57.127Z,99456.94
2023-01-23T15:23:37.913Z,99454.47
2023-01-23T15:26:19.649Z,99452.75
2023-01-23T15:28:51.718Z,99449.75
2023-01-23T15:31:27.372Z,99455.91
2023-01-23T15:33:54.959Z,99454.13
2023-01-23T15:36:27.755Z,99459.72
2023-01-23T15:38:56.544Z,99457.06
2023-01-23T15:41:39.440Z,99462.03
2023-01-23T15:44:13.729Z,99455.22
2023-01-23T15:46:40.345Z,99457.28
2023-01-23T15:49:10.775Z,99462.38
2023-01-23T15:51:43.038Z,99454.75
2023-01-23T15:54:19.933Z,99462.38
2023-01-23T15:56:48.830Z,99450.47
2023-01-23T15:59:20.705Z,99449.53
2023-01-23T16:01:47.364Z,99447.19
2023-01-23T16:04:14.019Z,99448.66
2023-01-23T16:06:40.951Z,99452.44
2023-01-23T16:09:09.929Z,99454.47
2023-01-23T16:11:38.572Z,99445.50
2023-01-23T16:14:05.094Z,99438.69
2023-01-23T16:16:31.701Z,99456.13
2023-01-23T16:18:58.234Z,99456.84
2023-01-23T16:21:29.796Z,99458.09
2023-01-23T16:23:57.208Z,99450.94
2023-01-23T16:26:26.384Z,99458.59
2023-01-23T16:28:57.163Z,99457.72
2023-01-23T16:31:31.737Z,99449.06
2023-01-23T16:33:58.387Z,99449.75
2023-01-23T16:36:24.892Z,99456.03
2023-01-23T16:38:56.382Z,99462.31
2023-01-23T16:41:22.943Z,99462.91
2023-01-23T16:43:49.551Z,99471.16
2023-01-23T16:46:16.085Z,99477.88
2023-01-23T16:48:42.574Z,99470.31
2023-01-23T16:51:21.870Z,99479.94
2023-01-23T16:53:58.650Z,99489.88
2023-01-23T16:56:50.964Z,99489.59
2023-01-23T16:59:21.672Z,99491.25
2023-01-23T17:01:50.993Z,99485.72
2023-01-23T17:04:20.676Z,99500.50
2023-01-23T17:06:48.003Z,99497.22
2023-01-23T17:09:15.344Z,99497.84
2023-01-23T17:11:52.731Z,99514.22
2023-01-23T17:14:27.759Z,99514.50
2023-01-23T17:17:09.890Z,99498.19
2023-01-23T17:19:41.374Z,99501.06
2023-01-23T17:22:18.972Z,99499.25
2023-01-23T17:24:45.534Z,99509.84
2023-01-23T17:27:12.028Z,99497.72
2023-01-23T17:29:38.504Z,99494.56
2023-01-23T17:32:05.432Z,99484.88
2023-01-23T17:34:45.187Z,99489.25
2023-01-23T17:37:21.080Z,99490.53
2023-01-23T17:39:47.705Z,99483.09
2023-01-23T17:42:14.616Z,99495.88
2023-01-23T17:44:41.387Z,99497.81
2023-01-23T17:47:13.914Z,99487.56
2023-01-23T17:49:43.856Z,99504.56
2023-01-23T17:52:11.504Z,99495.38
2023-01-23T17:54:38.203Z,99494.09
2023-01-23T17:57:04.873Z,99500.06
2023-01-23T17:59:31.932Z,99500.84
2023-01-23T18:01:58.620Z,99508.91
2023-01-23T18:04:25.116Z,99504.91
2023-01-23T18:06:51.723Z,99497.59
2023-01-23T18:09:21.360Z,99502.44
2023-01-23T18:11:52.380Z,99506.63
2023-01-23T18:14:24.790Z,99510.28
2023-01-23T18:16:51.634Z,99513.09
2023-01-23T18:19:23.560Z,99515.25
2023-01-23T18:21:52.997Z,99518.06
2023-01-23T18:24:31.461Z,99513.09
2023-01-23T18:27:24.627Z,99508.91
2023-01-23T18:30:27.484Z,99515.94
2023-01-23T18:33:13.082Z,99524.53
2023-01-23T18:35:42.563Z,99514.25
2023-01-23T18:38:36.015Z,99512.75
2023-01-23T18:41:25.117Z,99524.19
2023-01-23T18:44:02.686Z,99533.16
2023-01-23T18:46:29.483Z,99534.44
2023-01-23T18:48:56.351Z,99521.72
2023-01-23T18:51:32.584Z,99521.53
2023-01-23T18:54:08.321Z,99519.53
2023-01-23T18:56:50.944Z,99515.88
2023-01-23T18:59:26.601Z,99519.91
2023-01-23T19:02:47.360Z,99525.22
2023-01-23T19:05:21.185Z,99532.22
2023-01-23T19:07:49.554Z,99532.84
2023-01-23T19:10:19.272Z,99531.34
2023-01-23T19:12:48.481Z,99525.19
2023-01-23T19:16:05.816Z,99527.84
2023-01-23T19:19:17.319Z,99537.31
2023-01-23T19:21:46.625Z,99527.88
2023-01-23T19:24:18.196Z,99537.19
2023-01-23T19:26:45.052Z,99534.88
2023-01-23T19:29:21.464Z,99523.72
2023-01-23T19:32:04.155Z,99526.72
2023-01-23T19:34:31.752Z,99516.47
2023-01-23T19:36:58.245Z,99528.75
2023-01-23T19:39:24.693Z,99528.25
2023-01-23T19:41:51.908Z,99523.44
2023-01-23T19:44:20.258Z,99525.94
2023-01-23T19:46:47.541Z,99534.94
2023-01-23T19:49:14.069Z,99536.75
2023-01-23T19:51:41.369Z,99545.22
2023-01-23T19:54:09.479Z,99542.38
2023-01-23T19:56:37.187Z,99544.34
2023-01-23T19:59:03.637Z,99552.81
2023-01-23T20:01:46.712Z,99558.13
2023-01-23T20:04:16.097Z,99549.19
2023-01-23T20:06:45.302Z,99555.50
2023-01-23T20:09:14.612Z,99546.72
2023-01-23T20:11:42.873Z,99553.66
2023-01-23T20:14:09.671Z,99546.19
2023-01-23T20:16:40.234Z,99557.19
2023-01-23T20:19:07.537Z,99558.50
2023-01-23T20:21:34.436Z,99554.34
2023-01-23T20:24:00.957Z,99556.50
2023-01-23T20:26:27.601Z,99557.47
2023-01-23T20:28:54.128Z,99550.84
2023-01-23T20:31:21.594Z,99551.69
2023-01-23T20:33:48.376Z,99554.50
2023-01-23T20:36:15.985Z,99550.19
2023-01-23T20:38:43.428Z,99557.00
2023-01-23T20:41:15.664Z,99550.22
2023-01-23T20:43:45.640Z,99551.19
2023-01-23T20:46:13.875Z,99550.19
2023-01-23T20:48:43.961Z,99555.84
2023-01-23T20:51:11.039Z,99556.50
2023-01-23T20:53:39.965Z,99550.53
2023-01-23T20:56:12.168Z,99553.19
2023-01-23T20:59:00.065Z,99550.50
2023-01-23T21:01:29.678Z,99560.66
2023-01-23T21:03:56.713Z,99551.38
2023-01-23T21:06:23.259Z,99555.50
2023-01-23T21:08:49.775Z,99555.69
2023-01-23T21:11:18.496Z,99550.53
2023-01-23T21:13:50.733Z,99557.16
2023-01-23T21:16:18.113Z,99552.50
2023-01-23T21:18:46.898Z,99555.16
2023-01-23T21:21:17.245Z,99553.19
2023-01-23T21:23:46.606Z,99557.47
2023-01-23T21:26:13.185Z,99558.81
2023-01-23T21:28:39.760Z,99560.66
2023-01-23T21:31:12.890Z,99563.63
2023-01-23T21:33:40.736Z,99565.63
2023-01-23T21:36:07.761Z,99565.78
2023-01-23T21:38:34.230Z,99562.50
2023-01-23T21:41:00.748Z,99566.97
2023-01-23T21:43:27.296Z,99561.13
2023-01-23T21:45:53.803Z,99565.16
2023-01-23T21:48:20.342Z,99565.44
2023-01-23T21:50:46.833Z,99562.50
2023-01-23T21:53:13.316Z,99567.31
2023-01-23T21:55:39.794Z,99563.28
2023-01-23T21:58:06.393Z,99562.13
2023-01-23T22:00:59.648Z,99569.75
2023-01-23T22:03:26.107Z,99573.09
2023-01-23T22:05:57.576Z,99559.34
2023-01-23T22:08:24.074Z,99574.41
2023-01-23T22:10:50.576Z,99576.25
2023-01-23T22:13:17.028Z,99565.13
2023-01-23T22:15:43.602Z,99567.59
2023-01-23T22:18:10.110Z,99570.44
2023-01-23T22:20:38.239Z,99573.44
2023-01-23T22:23:04.797Z,99565.13
2023-01-23T22:25:31.524Z,99570.94
2023-01-23T22:27:57.978Z,99574.09
2023-01-23T22:30:24.564Z,99562.13
2023-01-23T22:32:51.172Z,99583.03
2023-01-23T22:35:17.746Z,99577.88
2023-01-23T22:37:44.273Z,99576.41
2023-01-23T22:40:11.242Z,99579.03
2023-01-23T22:42:37.918Z,99584.03
2023-01-23T22:45:05.394Z,99580.38
2023-01-23T22:47:31.945Z,99582.72
2023-01-23T22:49:58.485Z,99584.19
2023-01-23T22:52:24.988Z,99583.06
2023-01-23T22:54:51.547Z,99588.50
2023-01-23T22:57:18.002Z,99574.25
2023-01-23T22:59:44.476Z,99567.09
2023-01-23T23:02:10.916Z,99580.72
2023-01-23T23:04:37.480Z,99578.06
2023-01-23T23:07:03.967Z,99580.38
2023-01-23T23:09:30.453Z,99579.56
2023-01-23T23:11:57.324Z,99580.38
2023-01-23T23:14:23.907Z,99587.03
2023-01-23T23:16:50.424Z,99582.06
2023-01-23T23:19:16.865Z,99573.09
2023-01-23T23:21:43.407Z,99578.06
2023-01-23T23:24:12.750Z,99565.81
2023-01-23T23:26:39.271Z,99578.59
2023-01-23T23:29:06.084Z,99579.41
2023-01-23T23:31:32.757Z,99578.59
2023-01-23T23:33:59.648Z,99581.25
2023-01-23T23:36:26.197Z,99577.41
2023-01-23T23:38:52.780Z,99578.72
2023-01-23T23:41:19.458Z,99573.09
2023-01-23T23:43:46.077Z,99571.41
2023-01-23T23:46:13.780Z,99575.72
2023-01-23T23:48:40.485Z,99572.75
2023-01-23T23:51:09.516Z,99585.38
2023-01-23T23:53:36.758Z,99583.03
2023-01-23T23:56:04.607Z,99575.41
2023-01-23T23:58:31.627Z,99570.44
